createdAt,value
2023-03-15T00:02:30.564Z,27.70
2023-03-15T00:06:28.517Z,28.00
2023-03-15T00:10:26.439Z,28.70
2023-03-15T00:14:25.449Z,29.00
2023-03-15T00:18:23.577Z,27.40
2023-03-15T00:22:21.560Z,28.00
2023-03-15T00:26:19.368Z,26.00
2023-03-15T00:30:17.523Z,27.00
2023-03-15T00:34:15.388Z,26.70
2023-03-15T00:38:13.407Z,27.40
2023-03-15T00:42:11.466Z,27.20
2023-03-15T00:46:09.524Z,26.50
2023-03-15T00:50:07.325Z,26.60
2023-03-15T00:54:08.466Z,27.50
2023-03-15T00:58:06.441Z,25.40
2023-03-15T01:02:04.469Z,25.60
2023-03-15T01:06:02.396Z,25.70
2023-03-15T01:10:00.374Z,26.10
2023-03-15T01:13:58.373Z,27.90
2023-03-15T01:17:57.356Z,27.90
2023-03-15T01:21:55.339Z,24.60
2023-03-15T01:25:53.425Z,27.30
2023-03-15T01:29:51.389Z,26.80
2023-03-15T01:33:49.350Z,24.40
2023-03-15T01:37:47.356Z,24.30
2023-03-15T01:41:45.432Z,26.40
2023-03-15T01:46:05.316Z,25.20
2023-03-15T01:50:25.392Z,28.50
2023-03-15T01:54:38.284Z,26.50
2023-03-15T01:58:40.305Z,24.80
2023-03-15T02:02:40.326Z,26.70
2023-03-15T02:06:42.302Z,23.20
2023-03-15T02:10:52.284Z,25.30
2023-03-15T02:14:50.362Z,24.80
2023-03-15T02:18:49.379Z,23.50
2023-03-15T02:23:06.297Z,26.90
2023-03-15T02:27:09.272Z,23.80
2023-03-15T02:31:07.297Z,21.90
2023-03-15T02:35:05.229Z,24.50
2023-03-15T02:39:04.326Z,22.40
2023-03-15T02:43:10.213Z,21.40
2023-03-15T02:47:12.287Z,22.70
2023-03-15T02:51:11.289Z,21.90
2023-03-15T02:55:09.474Z,22.60
2023-03-15T02:59:07.354Z,24.20
2023-03-15T03:03:05.334Z,21.00
2023-03-15T03:07:03.214Z,16.20
2023-03-15T03:11:08.256Z,11.70
2023-03-15T03:15:06.249Z,13.70
2023-03-15T03:19:04.393Z,11.60
2023-03-15T03:23:02.190Z,7.70
2023-03-15T03:27:04.216Z,7.50
2023-03-15T03:31:02.382Z,11.10
2023-03-15T03:35:00.326Z,12.40
2023-03-15T03:39:00.199Z,26.70
2023-03-15T03:42:58.325Z,24.80
2023-03-15T03:46:56.125Z,17.50
2023-03-15T03:50:54.397Z,21.20
2023-03-15T03:54:52.216Z,20.80
2023-03-15T03:58:50.242Z,19.20
2023-03-15T04:02:53.223Z,20.50
2023-03-15T04:06:53.260Z,19.60
2023-03-15T04:10:56.287Z,12.70
2023-03-15T04:14:55.162Z,10.60
2023-03-15T04:18:56.215Z,8.30
2023-03-15T04:22:57.175Z,5.50
2023-03-15T04:27:15.212Z,4.90
2023-03-15T04:31:26.241Z,4.40
2023-03-15T04:35:44.136Z,3.90
2023-03-15T04:40:00.247Z,5.90
2023-03-15T04:44:34.076Z,7.80
2023-03-15T04:48:50.273Z,7.40
2023-03-15T04:53:05.075Z,9.10
2023-03-15T04:57:22.092Z,12.20
2023-03-15T05:01:28.147Z,10.10
2023-03-15T05:05:56.329Z,8.80
2023-03-15T05:10:12.057Z,9.60
2023-03-15T05:14:28.234Z,8.60
2023-03-15T05:18:26.040Z,8.90
2023-03-15T05:22:37.067Z,7.50
2023-03-15T05:26:35.038Z,11.40
2023-03-15T05:30:45.102Z,8.30
2023-03-15T05:34:59.186Z,10.40
2023-03-15T05:39:06.072Z,7.60
2023-03-15T05:43:20.035Z,8.80
2023-03-15T05:47:36.029Z,10.50
2023-03-15T05:51:40.973Z,11.30
2023-03-15T05:55:47.991Z,12.30
2023-03-15T06:00:04.982Z,13.00
2023-03-15T06:04:06.056Z,9.90
2023-03-15T06:08:04.017Z,8.10
2023-03-15T06:12:04.100Z,10.20
2023-03-15T06:16:02.918Z,10.30
2023-03-15T06:20:07.201Z,9.70
2023-03-15T06:24:05.009Z,12.10
2023-03-15T06:28:02.968Z,10.20
2023-03-15T06:32:02.945Z,8.30
2023-03-15T06:36:01.963Z,9.70
2023-03-15T06:40:01.000Z,14.70
2023-03-15T06:43:58.923Z,7.20
2023-03-15T06:47:56.926Z,11.10
2023-03-15T06:51:56.017Z,9.50
2023-03-15T06:55:54.089Z,15.70
2023-03-15T06:59:40.581Z,7.10
2023-03-15T07:03:04.545Z,10.60
2023-03-15T07:06:29.705Z,11.50
2023-03-15T07:09:55.246Z,10.70
2023-03-15T07:13:20.748Z,14.30
2023-03-15T07:16:44.845Z,9.10
2023-03-15T07:20:09.369Z,6.80
2023-03-15T07:23:33.753Z,12.20
2023-03-15T07:26:57.898Z,14.90
2023-03-15T07:30:22.897Z,9.10
2023-03-15T07:33:46.757Z,8.70
2023-03-15T07:37:10.986Z,9.80
2023-03-15T07:40:35.759Z,9.80
2023-03-15T07:44:00.466Z,10.90
2023-03-15T07:47:24.501Z,7.50
2023-03-15T07:50:48.662Z,12.70
2023-03-15T07:54:12.646Z,13.70
2023-03-15T07:57:38.124Z,13.90
2023-03-15T08:01:03.130Z,31.30
2023-03-15T08:04:28.244Z,17.30
2023-03-15T08:07:52.282Z,17.10
2023-03-15T08:11:16.351Z,16.20
2023-03-15T08:14:40.463Z,16.90
2023-03-15T08:18:05.959Z,14.20
2023-03-15T08:21:33.882Z,16.40
2023-03-15T08:24:57.794Z,15.00
2023-03-15T08:28:22.058Z,15.90
2023-03-15T08:31:45.963Z,15.10
2023-03-15T08:35:15.188Z,12.30
2023-03-15T08:38:39.898Z,16.80
2023-03-15T08:42:03.810Z,16.60
2023-03-15T08:45:28.317Z,13.90
2023-03-15T08:48:53.179Z,16.30
2023-03-15T08:52:18.287Z,16.30
2023-03-15T08:55:42.601Z,17.50
2023-03-15T08:59:06.522Z,14.10
2023-03-15T09:02:30.622Z,20.30
2023-03-15T09:06:01.487Z,18.50
2023-03-15T09:09:26.517Z,16.00
2023-03-15T09:12:54.073Z,14.80
2023-03-15T09:16:19.824Z,16.80
2023-03-15T09:19:45.081Z,15.60
2023-03-15T09:23:10.923Z,20.50
2023-03-15T09:26:34.853Z,13.70
2023-03-15T09:29:58.831Z,14.80
2023-03-15T09:33:23.554Z,19.10
2023-03-15T09:36:53.159Z,16.90
2023-03-15T09:40:25.109Z,14.60
2023-03-15T09:44:40.574Z,18.60
2023-03-15T09:48:14.882Z,22.00
2023-03-15T09:51:58.445Z,14.90
2023-03-15T09:55:28.118Z,16.30
2023-03-15T09:58:59.134Z,10.30
2023-03-15T10:02:29.243Z,14.60
2023-03-15T10:06:16.264Z,11.30
2023-03-15T10:09:40.134Z,13.30
2023-03-15T10:13:37.531Z,9.20
2023-03-15T10:17:08.545Z,16.90
2023-03-15T10:20:35.831Z,13.30
2023-03-15T10:24:01.700Z,16.30
2023-03-15T10:31:25.682Z,13.30
2023-03-15T10:34:56.786Z,12.30
2023-03-15T10:38:23.304Z,14.10
2023-03-15T10:41:52.321Z,16.10
2023-03-15T10:45:28.415Z,14.90
2023-03-15T10:52:35.709Z,11.60
2023-03-15T10:56:08.151Z,12.60
2023-03-15T10:59:35.697Z,14.10
2023-03-15T11:03:06.981Z,12.50
2023-03-15T11:06:41.751Z,12.40
2023-03-15T11:10:08.081Z,15.30
2023-03-15T11:13:36.990Z,12.80
2023-03-15T11:17:03.487Z,14.40
2023-03-15T11:20:41.046Z,13.20
2023-03-15T11:24:08.659Z,15.10
2023-03-15T11:27:34.007Z,13.50
2023-03-15T11:31:00.982Z,16.50
2023-03-15T11:34:46.038Z,13.90
2023-03-15T11:38:19.950Z,14.00
2023-03-15T11:41:51.357Z,16.60
2023-03-15T11:45:40.415Z,14.00
2023-03-15T11:49:41.726Z,13.80
2023-03-15T11:53:07.516Z,14.80
2023-03-15T12:00:27.037Z,16.40
2023-03-15T12:03:51.578Z,14.10
2023-03-15T12:07:24.053Z,16.50
2023-03-15T12:10:50.060Z,15.10
2023-03-15T12:14:29.412Z,15.20
2023-03-15T12:17:56.992Z,15.20
2023-03-15T12:21:24.750Z,21.60
2023-03-15T12:24:49.400Z,14.50
2023-03-15T12:28:24.621Z,16.60
2023-03-15T12:32:05.557Z,17.00
2023-03-15T12:35:39.810Z,17.00
2023-03-15T12:39:16.061Z,17.20
2023-03-15T12:42:40.138Z,16.20
2023-03-15T12:46:06.328Z,13.20
2023-03-15T12:49:30.460Z,16.40
2023-03-15T12:52:54.695Z,15.80
2023-03-15T12:56:32.754Z,19.00
2023-03-15T13:00:16.889Z,12.20
2023-03-15T13:03:42.010Z,18.40
2023-03-15T13:07:24.709Z,20.90
2023-03-15T13:11:07.313Z,16.80
2023-03-15T13:14:34.435Z,14.90
2023-03-15T13:18:04.661Z,12.70
2023-03-15T13:21:55.674Z,9.70
2023-03-15T13:25:35.615Z,16.00
2023-03-15T13:29:17.798Z,16.70
2023-03-15T13:32:44.572Z,14.40
2023-03-15T13:36:16.153Z,14.30
2023-03-15T13:39:40.074Z,18.40
2023-03-15T13:43:03.990Z,15.00
2023-03-15T13:46:31.764Z,15.50
2023-03-15T13:49:57.770Z,12.50
2023-03-15T13:57:15.341Z,16.40
2023-03-15T14:00:39.438Z,14.60
2023-03-15T14:04:11.441Z,11.90
2023-03-15T14:07:41.827Z,17.60
2023-03-15T14:11:19.949Z,14.80
2023-03-15T14:14:51.980Z,17.20
2023-03-15T14:18:24.903Z,18.00
2023-03-15T14:22:05.067Z,16.60
2023-03-15T14:25:29.358Z,16.90
2023-03-15T14:29:02.240Z,11.70
2023-03-15T14:32:50.421Z,15.30
2023-03-15T14:36:56.306Z,22.60
2023-03-15T14:40:54.344Z,18.50
2023-03-15T14:44:52.335Z,16.80
2023-03-15T14:48:50.267Z,13.60
2023-03-15T14:52:49.304Z,13.10
2023-03-15T14:56:48.301Z,17.30
2023-03-15T15:00:47.489Z,15.20
2023-03-15T15:04:50.343Z,17.20
2023-03-15T15:08:49.409Z,12.10
2023-03-15T15:12:50.765Z,13.70
2023-03-15T15:16:54.546Z,14.40
2023-03-15T15:20:52.251Z,17.40
2023-03-15T15:24:51.420Z,15.80
2023-03-15T15:28:50.224Z,15.30
2023-03-15T15:32:48.407Z,14.50
2023-03-15T15:36:55.324Z,16.90
2023-03-15T15:40:54.284Z,29.60
2023-03-15T15:44:52.455Z,16.50
2023-03-15T15:48:50.228Z,20.30
2023-03-15T15:52:48.187Z,22.70
2023-03-15T15:56:54.220Z,24.00
2023-03-15T16:00:52.188Z,24.50
2023-03-15T16:04:50.231Z,23.70
2023-03-15T16:08:53.169Z,25.20
2023-03-15T16:12:51.198Z,21.80
2023-03-15T16:16:49.134Z,25.30
2023-03-15T16:20:47.225Z,27.20
2023-03-15T16:24:51.485Z,26.70
2023-03-15T16:28:49.233Z,29.00
2023-03-15T16:32:47.313Z,31.30
2023-03-15T16:36:48.924Z,28.80
2023-03-15T16:40:50.120Z,28.90
2023-03-15T16:44:48.250Z,29.10
2023-03-15T16:48:46.185Z,30.80
2023-03-15T16:52:44.171Z,27.30
2023-03-15T16:56:47.257Z,29.40
2023-03-15T17:00:45.239Z,39.20
2023-03-15T17:04:43.104Z,29.90
2023-03-15T17:08:41.203Z,33.30
2023-03-15T17:12:43.137Z,30.60
2023-03-15T17:16:41.203Z,34.80
2023-03-15T17:20:41.220Z,30.30
2023-03-15T17:24:39.848Z,28.00
2023-03-15T17:28:39.219Z,28.00
2023-03-15T17:32:37.424Z,26.50
2023-03-15T17:36:38.359Z,26.60
2023-03-15T17:40:42.164Z,33.50
2023-03-15T17:44:40.146Z,30.60
2023-03-15T17:48:38.289Z,28.60
2023-03-15T17:52:35.991Z,31.60
2023-03-15T17:56:37.739Z,35.90
2023-03-15T18:00:35.299Z,26.50
2023-03-15T18:04:35.272Z,26.80
2023-03-15T18:08:35.329Z,34.80
2023-03-15T18:12:34.611Z,24.80
2023-03-15T18:16:32.264Z,24.80
2023-03-15T18:20:31.281Z,34.20
2023-03-15T18:24:31.627Z,35.00
2023-03-15T18:28:29.274Z,39.60
2023-03-15T18:32:27.041Z,38.90
2023-03-15T18:36:26.028Z,35.50
2023-03-15T18:40:26.030Z,34.60
2023-03-15T18:44:25.155Z,45.00
2023-03-15T18:48:34.269Z,37.90
2023-03-15T18:52:38.036Z,37.80
2023-03-15T18:56:40.953Z,39.60
2023-03-15T19:00:44.995Z,31.90
2023-03-15T19:04:43.088Z,40.10
2023-03-15T19:08:41.021Z,38.40
2023-03-15T19:12:38.901Z,45.80
2023-03-15T19:16:38.060Z,31.80
2023-03-15T19:20:37.091Z,29.50
2023-03-15T19:24:36.084Z,30.40
2023-03-15T19:28:34.964Z,26.20
2023-03-15T19:32:32.916Z,27.10
2023-03-15T19:36:31.950Z,26.70
2023-03-15T19:40:31.262Z,29.90
2023-03-15T19:44:28.978Z,29.80
2023-03-15T19:48:27.007Z,34.20
2023-03-15T19:52:24.819Z,35.20
2023-03-15T19:56:23.999Z,34.40
2023-03-15T20:00:23.209Z,33.20
2023-03-15T20:04:21.269Z,26.80
2023-03-15T20:08:20.831Z,30.30
2023-03-15T20:12:22.911Z,34.80
2023-03-15T20:16:20.917Z,43.70
2023-03-15T20:20:21.162Z,38.80
2023-03-15T20:24:18.857Z,36.20
2023-03-15T20:28:16.945Z,44.30
2023-03-15T20:32:14.792Z,56.00
2023-03-15T20:36:13.870Z,46.50
2023-03-15T20:40:17.261Z,55.20
2023-03-15T20:44:14.918Z,38.20
2023-03-15T20:48:12.886Z,48.00
2023-03-15T20:52:11.894Z,49.30
2023-03-15T20:56:09.759Z,45.00
2023-03-15T21:00:08.972Z,38.50
2023-03-15T21:04:06.845Z,37.20
2023-03-15T21:08:04.924Z,47.30
2023-03-15T21:12:03.759Z,35.80
2023-03-15T21:16:02.231Z,31.90
2023-03-15T21:20:01.836Z,36.10
2023-03-15T21:24:00.832Z,42.10
2023-03-15T21:28:01.153Z,41.00
2023-03-15T21:31:58.927Z,39.90
2023-03-15T21:35:57.996Z,33.90
2023-03-15T21:39:55.796Z,35.90
2023-03-15T21:43:56.691Z,39.60
2023-03-15T21:47:54.730Z,44.50
2023-03-15T21:51:52.754Z,41.90
2023-03-15T21:55:52.704Z,38.30
2023-03-15T21:59:50.652Z,58.70
2023-03-15T22:03:50.679Z,40.00
2023-03-15T22:07:49.274Z,37.80
2023-03-15T22:11:49.804Z,37.50
2023-03-15T22:15:47.652Z,37.20
2023-03-15T22:19:46.717Z,38.50
2023-03-15T22:23:46.632Z,38.90
2023-03-15T22:27:44.703Z,40.60
2023-03-15T22:31:44.645Z,35.10
2023-03-15T22:35:42.719Z,41.60
2023-03-15T22:39:40.627Z,49.30
2023-03-15T22:43:38.729Z,43.80
2023-03-15T22:47:36.607Z,46.60
2023-03-15T22:51:34.657Z,40.40
2023-03-15T22:55:33.638Z,37.90
2023-03-15T22:59:35.680Z,44.10
2023-03-15T23:03:33.670Z,45.90
2023-03-15T23:07:31.647Z,34.70
2023-03-15T23:11:29.564Z,37.80
2023-03-15T23:15:27.640Z,37.90
2023-03-15T23:19:25.553Z,33.70
2023-03-15T23:23:23.743Z,34.90
2023-03-15T23:27:21.561Z,40.10
2023-03-15T23:31:20.640Z,35.20
2023-03-15T23:35:21.568Z,36.40
2023-03-15T23:39:19.632Z,32.60
2023-03-15T23:43:17.553Z,33.40
2023-03-15T23:47:15.609Z,35.90
2023-03-15T23:51:13.587Z,37.60
2023-03-15T23:55:11.656Z,36.30
2023-03-15T23:59:09.563Z,31.70
